Gladstone Airport
YGLA : now visible

Airfield :











YOU CAN JOIN US ON...

 
LOGIN :

Register | Disclaimer

   EN    FR    IT 

 









Legend :    VFR   Marginal VFR   IFR   Intensive IFR   Very Intensive IFR
Visi :
Ceiling :
>= 8 km
>= 3000ft
5 to 8 km
1000 to 3000 ft
1500m to 5 km
500 to 1000 ft
800 to 1500m
200 to 500 ft
< 800m
< 200 ft
Symbols :   Thunderstorms  Fog  Heavy snow  Heavy precipitations  Wind > 20 kt






- Airport Elevation : 64 ft
- IATA code : GLT


YGLA - Gladstone

CURRENT METAR :
  • 260500Z AUTO 03010KT 9999 // NCD 27/18 Q1014 RF00.0/000.0

EXPIRED METARs :
  • 260430Z AUTO 05011KT 9999 // NCD 27/19 Q1014 RF00.0/000.0
  • 260400Z AUTO 05010KT 9999 // NCD 28/20 Q1014 RF00.0/000.0
  • 260330Z AUTO 03010KT 9999 // NCD 28/19 Q1014 RF00.0/000.0
  • 260300Z AUTO 33007KT 270V040 9999 // NCD 28/17 Q1015 RF00.0/000.0
  • 260230Z AUTO 35003KT 9999 // NCD 28/18 Q1015 RF00.0/000.0

TAF TAF YGLA
Valid from the 26 at 00:00 until the 26 at 12:00 UTC


252324Z 2600/2612 03010KT 9999 SCT040
FM261100 03005KT 9999 BKN018
PROB30
TEMPO 2604/2611 VRB20G35KT 1000 TSRA BKN020 SCT040CB
YBBB FIR / Oceania



MET'MAP, your aeronautical weather chart ! - Copyright ORBIFLY December 2007 - Disclaimer

ORBIFLY MET'MAP TEAM :

Programming & Development : Alexandra Zaïnal
Concept & original design : Baudouin d'Aumeries
Assistance for programming : Marc-Olivier Méhu
Technical & hardware support : Manuel Goepfert

Contact : metmap@orbifly.com




SOURCES & CREDITS :

   NOAA       Earth
Advisory